San Jose, Philippines
Current Conditions -  °F | °C
As of 8:00 PM on Tuesday 21 Oct 2014 (Local Time) from RPLL Reporting Station
Scattered Clouds Scattered Clouds  
Wind Chill: 84°   Ceiling: Unl
Heat Index: 96°   Visibility: 6mi
Dew Point: 79°   Wind: 3mph
Humidity: 84%   Direction: NA
Pressure: 29.91"   Gusts: NA
Location:  12.35°N, 121.03°E
Report Text: RPLL 211200Z VRB03KT 9999 FEW023CB FEW025 SCT100 29/26 Q1013 NOSIG RMK A2991 CB W AND NW W/ FRQNT LTNG
Loading
Personal Weather Stations






























Interactive Weather Map
Tropical Storm Tracking
New forecast layout! Learn more

10-Day Weather Forecast

Advertisements
Track Severe Weather on mobile